Time;durP1;ratioP1;P1;durP2;ratioP2;P2;SDS_P1;SDS_P2;PMS_P1;PMS_P2;Temp;Humidity;BMP_temperature;BMP_pressure;BME280_temperature;BME280_humidity;BME280_pressure;Samples;Min_cycle;Max_cycle;Signal;HPM_P1;HPM_P2
2022/12/31 00:00:47;;;;;;;44.63;21.33;;;;;;;;;;10440366;28;20029;-72
2022/12/31 00:05:48;;;;;;;44.38;21.60;;;;;;;;;;10423952;28;20135;-73
2022/12/31 00:10:48;;;;;;;42.22;20.92;;;;;;;;;;10440136;28;20025;-77
2022/12/31 00:15:48;;;;;;;42.28;20.67;;;;;;;;;;10431884;28;20525;-75
2022/12/31 00:20:48;;;;;;;39.30;18.52;;;;;;;;;;10438824;28;20045;-76
2022/12/31 00:25:49;;;;;;;42.35;18.77;;;;;;;;;;10422340;28;20090;-76
2022/12/31 00:30:49;;;;;;;39.70;19.77;;;;;;;;;;10438587;28;20029;-73
2022/12/31 00:35:49;;;;;;;44.28;18.60;;;;;;;;;;10422387;28;20029;-72
2022/12/31 00:40:49;;;;;;;38.75;17.63;;;;;;;;;;10428119;28;20190;-78
2022/12/31 00:45:50;;;;;;;34.10;16.58;;;;;;;;;;10401222;28;20025;-73
2022/12/31 00:50:50;;;;;;;37.08;16.98;;;;;;;;;;10421802;28;20025;-77
2022/12/31 00:55:51;;;;;;;22.83;10.27;;;;;;;;;;10439442;28;20044;-75
2022/12/31 01:00:51;;;;;;;20.20;9.77;;;;;;;;;;10424321;28;20471;-78
2022/12/31 01:05:51;;;;;;;21.10;9.18;;;;;;;;;;10421662;28;20263;-77
2022/12/31 01:16:12;;;;;;;23.50;10.48;;;;;;;;;;10440328;28;20028;-77
2022/12/31 01:21:13;;;;;;;17.42;9.07;;;;;;;;;;10437568;28;20037;-73
2022/12/31 01:26:14;;;;;;;24.48;10.82;;;;;;;;;;10438127;28;20033;-74
2022/12/31 01:31:16;;;;;;;28.52;10.45;;;;;;;;;;10400737;28;20033;-74
2022/12/31 01:36:17;;;;;;;20.98;10.77;;;;;;;;;;10442322;28;20025;-75
2022/12/31 01:41:19;;;;;;;20.10;11.30;;;;;;;;;;10445863;28;20071;-75
2022/12/31 01:46:23;;;;;;;22.45;12.75;;;;;;;;;;10428955;28;20468;-75
2022/12/31 01:51:25;;;;;;;27.23;15.10;;;;;;;;;;10445420;28;20051;-78
2022/12/31 01:56:25;;;;;;;29.35;14.85;;;;;;;;;;10445576;28;20079;-80
2022/12/31 02:01:31;;;;;;;36.85;15.65;;;;;;;;;;10445010;28;20025;-77
2022/12/31 02:06:36;;;;;;;43.67;15.63;;;;;;;;;;10428215;28;20137;-79
2022/12/31 02:11:37;;;;;;;30.73;16.63;;;;;;;;;;10440377;28;20119;-77
2022/12/31 02:16:40;;;;;;;35.13;16.35;;;;;;;;;;10418355;28;20055;-78
2022/12/31 02:22:02;;;;;;;37.72;15.98;;;;;;;;;;10449221;28;20045;-75
2022/12/31 02:27:05;;;;;;;33.95;15.55;;;;;;;;;;10448487;28;20025;-76
2022/12/31 02:32:19;;;;;;;28.35;16.08;;;;;;;;;;10427917;28;20029;-74
2022/12/31 02:37:20;;;;;;;33.35;15.82;;;;;;;;;;10444085;28;20025;-78
2022/12/31 02:42:21;;;;;;;33.30;15.85;;;;;;;;;;10427256;28;20450;-79
2022/12/31 02:47:41;;;;;;;33.63;16.23;;;;;;;;;;10441850;28;20601;-80
2022/12/31 02:52:53;;;;;;;32.72;15.15;;;;;;;;;;10426374;28;20064;-79
2022/12/31 02:58:12;;;;;;;33.05;15.88;;;;;;;;;;10444626;28;20032;-73
2022/12/31 03:03:12;;;;;;;28.35;15.23;;;;;;;;;;10442958;28;20108;-76
2022/12/31 03:08:19;;;;;;;31.27;12.63;;;;;;;;;;10419613;28;20063;-76
2022/12/31 03:13:19;;;;;;;32.55;13.88;;;;;;;;;;10416648;28;20033;-76
2022/12/31 03:22:26;;;;;;;31.08;13.82;;;;;;;;;;10442562;28;20486;-80
2022/12/31 03:23:42;;;;;;;28.75;13.40;;;;;;;;;;10443309;28;20434;-76
2022/12/31 03:28:46;;;;;;;28.60;12.77;;;;;;;;;;10442446;28;20060;-77
2022/12/31 03:33:46;;;;;;;32.45;12.32;;;;;;;;;;10442958;28;20024;-77
2022/12/31 03:38:46;;;;;;;35.40;13.57;;;;;;;;;;10442093;28;20041;-77
2022/12/31 03:43:47;;;;;;;25.77;12.80;;;;;;;;;;10416306;28;20072;-76
2022/12/31 03:48:47;;;;;;;28.30;12.57;;;;;;;;;;10399068;28;20021;-76
2022/12/31 03:53:47;;;;;;;34.30;14.57;;;;;;;;;;10431423;28;20072;-74
2022/12/31 03:58:47;;;;;;;36.05;14.00;;;;;;;;;;10440267;28;20024;-76
2022/12/31 04:03:48;;;;;;;29.25;13.50;;;;;;;;;;10423954;28;20074;-77
2022/12/31 04:08:48;;;;;;;28.25;12.85;;;;;;;;;;10429382;28;20037;-77
2022/12/31 04:13:48;;;;;;;26.60;13.05;;;;;;;;;;10439313;28;20025;-75
2022/12/31 04:18:48;;;;;;;30.20;14.10;;;;;;;;;;10440212;28;20123;-77
2022/12/31 04:23:49;;;;;;;32.10;14.43;;;;;;;;;;10422852;28;20052;-77
2022/12/31 04:28:49;;;;;;;31.58;14.50;;;;;;;;;;10478464;22;20047;-78
2022/12/31 04:33:49;;;;;;;42.70;16.45;;;;;;;;;;10477017;28;20021;-76
2022/12/31 04:38:50;;;;;;;27.75;14.40;;;;;;;;;;10480036;28;20021;-77
2022/12/31 04:43:51;;;;;;;28.52;13.40;;;;;;;;;;10479693;28;20387;-76
2022/12/31 04:48:51;;;;;;;37.42;14.07;;;;;;;;;;10462863;28;20027;-77
2022/12/31 04:53:52;;;;;;;31.88;15.68;;;;;;;;;;10481190;28;20505;-77
2022/12/31 04:58:52;;;;;;;33.53;16.40;;;;;;;;;;10479701;28;20256;-75
2022/12/31 05:03:52;;;;;;;30.25;14.38;;;;;;;;;;10480409;28;20028;-76
2022/12/31 05:08:53;;;;;;;38.92;15.05;;;;;;;;;;10483198;28;20111;-76
2022/12/31 05:13:53;;;;;;;40.07;19.50;;;;;;;;;;10488915;28;20037;-76
2022/12/31 05:18:53;;;;;;;34.53;16.17;;;;;;;;;;10488914;28;20039;-77
2022/12/31 05:23:53;;;;;;;37.15;18.00;;;;;;;;;;10467487;28;20042;-76
2022/12/31 05:28:55;;;;;;;35.85;15.70;;;;;;;;;;10488595;28;20056;-77
2022/12/31 05:33:55;;;;;;;34.63;14.95;;;;;;;;;;10491655;28;20069;-77
2022/12/31 05:38:55;;;;;;;34.20;15.95;;;;;;;;;;10469800;28;20066;-78
2022/12/31 05:43:56;;;;;;;38.75;18.05;;;;;;;;;;10468473;28;20086;-76
2022/12/31 05:48:56;;;;;;;50.00;22.30;;;;;;;;;;10485285;28;20490;-75
2022/12/31 05:53:56;;;;;;;43.65;21.10;;;;;;;;;;10468878;28;20383;-75
2022/12/31 05:58:57;;;;;;;38.25;19.75;;;;;;;;;;10469225;28;20028;-77
2022/12/31 06:03:57;;;;;;;42.85;19.33;;;;;;;;;;10466893;28;20020;-78
2022/12/31 06:08:57;;;;;;;34.38;17.65;;;;;;;;;;10467553;28;20150;-77
2022/12/31 06:13:57;;;;;;;33.80;17.17;;;;;;;;;;10461131;28;20122;-75
2022/12/31 06:18:58;;;;;;;39.15;18.40;;;;;;;;;;10462618;28;20621;-71
2022/12/31 06:23:59;;;;;;;41.88;18.35;;;;;;;;;;10453900;28;20021;-74
2022/12/31 06:28:59;;;;;;;44.17;18.63;;;;;;;;;;10465350;28;20540;-74
2022/12/31 06:33:59;;;;;;;38.67;19.70;;;;;;;;;;10465907;28;20570;-77
2022/12/31 06:39:00;;;;;;;37.03;17.90;;;;;;;;;;10484957;28;20025;-75
2022/12/31 06:44:00;;;;;;;43.00;19.25;;;;;;;;;;10467675;28;20036;-75
2022/12/31 06:49:00;;;;;;;34.95;18.65;;;;;;;;;;10485262;28;20479;-75
2022/12/31 06:54:00;;;;;;;36.85;18.27;;;;;;;;;;10485854;28;20032;-76
2022/12/31 06:59:02;;;;;;;42.05;18.33;;;;;;;;;;10448647;28;20071;-77
2022/12/31 07:04:22;;;;;;;36.60;18.05;;;;;;;;;;10479451;28;20498;-73
2022/12/31 07:09:22;;;;;;;45.88;17.42;;;;;;;;;;10429474;28;20040;-77
2022/12/31 07:14:29;;;;;;;32.80;17.45;;;;;;;;;;10464949;28;20035;-76
2022/12/31 07:19:32;;;;;;;31.70;15.73;;;;;;;;;;10465563;28;20054;-73
2022/12/31 07:24:32;;;;;;;30.33;15.75;;;;;;;;;;10467346;28;20443;-75
2022/12/31 07:29:51;;;;;;;30.27;15.50;;;;;;;;;;10464543;28;20060;-76
2022/12/31 07:34:51;;;;;;;;;;;;;;;;;;10481458;28;20028;-76
2022/12/31 07:39:59;;;;;;;25.02;12.45;;;;;;;;;;10475093;28;19916;-76
2022/12/31 07:45:02;;;;;;;13.80;8.27;;;;;;;;;;10476165;28;20024;-77
2022/12/31 07:50:03;;;;;;;16.70;9.52;;;;;;;;;;10459697;28;20147;-75
2022/12/31 07:55:03;;;;;;;14.93;8.48;;;;;;;;;;10460079;28;20169;-80
2022/12/31 08:00:08;;;;;;;16.80;8.43;;;;;;;;;;10480662;28;20028;-75
2022/12/31 08:05:17;;;;;;;14.73;8.40;;;;;;;;;;10463003;28;20112;-76
2022/12/31 08:10:25;;;;;;;13.82;8.23;;;;;;;;;;10454199;28;20098;-77
2022/12/31 08:15:26;;;;;;;19.80;9.90;;;;;;;;;;10458140;28;20517;-79
2022/12/31 08:20:28;;;;;;;15.55;8.05;;;;;;;;;;10456421;28;20040;-73
2022/12/31 08:25:31;;;;;;;17.70;8.73;;;;;;;;;;10454121;28;20090;-77
2022/12/31 08:30:55;;;;;;;20.00;8.18;;;;;;;;;;10456709;28;20091;-78
2022/12/31 08:36:01;;;;;;;128.13;104.70;;;;;;;;;;10445248;28;20040;-78
2022/12/31 08:41:08;;;;;;;52.63;33.78;;;;;;;;;;10464048;28;20024;-78
2022/12/31 08:46:16;;;;;;;34.20;18.13;;;;;;;;;;10481002;28;20130;-79
2022/12/31 08:51:20;;;;;;;16.60;7.93;;;;;;;;;;10461850;28;20079;-78
2022/12/31 08:56:27;;;;;;;28.23;8.45;;;;;;;;;;10454310;28;20052;-79
2022/12/31 09:01:30;;;;;;;40.05;9.60;;;;;;;;;;10458918;28;20024;-73
2022/12/31 09:06:46;;;;;;;14.65;7.78;;;;;;;;;;10461991;28;20058;-77
2022/12/31 09:11:52;;;;;;;21.63;8.93;;;;;;;;;;10460239;28;20112;-78
2022/12/31 09:16:55;;;;;;;23.38;10.98;;;;;;;;;;10460214;28;20468;-75
2022/12/31 09:21:56;;;;;;;20.65;10.43;;;;;;;;;;10461125;28;20028;-71
2022/12/31 09:27:03;;;;;;;28.90;15.20;;;;;;;;;;10463598;28;20676;-74
2022/12/31 09:32:22;;;;;;;32.73;13.83;;;;;;;;;;10443972;28;20275;-80
2022/12/31 09:37:41;;;;;;;39.92;18.23;;;;;;;;;;10423589;28;20542;-79
2022/12/31 09:43:13;;;;;;;41.08;17.75;;;;;;;;;;10441287;28;20400;-80
2022/12/31 09:48:23;;;;;;;43.38;18.92;;;;;;;;;;10425073;28;20036;-80
2022/12/31 09:53:23;;;;;;;41.08;19.65;;;;;;;;;;10440330;28;20446;-79
2022/12/31 09:58:47;;;;;;;44.83;22.63;;;;;;;;;;10465426;28;20025;-78
2022/12/31 10:03:50;;;;;;;47.85;19.23;;;;;;;;;;10454498;28;20070;-77
2022/12/31 10:08:50;;;;;;;30.30;16.67;;;;;;;;;;10469979;28;20513;-77
2022/12/31 10:14:02;;;;;;;33.37;15.57;;;;;;;;;;10470027;28;20034;-78
2022/12/31 10:19:11;;;;;;;34.60;16.65;;;;;;;;;;10468270;28;20123;-77
2022/12/31 10:24:30;;;;;;;31.33;16.35;;;;;;;;;;10460251;28;20053;-74
2022/12/31 10:29:34;;;;;;;28.83;14.95;;;;;;;;;;10469418;28;20052;-77
2022/12/31 10:34:43;;;;;;;28.08;14.15;;;;;;;;;;10488241;28;20028;-78
2022/12/31 10:39:46;;;;;;;28.10;14.00;;;;;;;;;;10467599;28;20060;-78
2022/12/31 10:45:19;;;;;;;25.70;12.55;;;;;;;;;;10464972;28;20024;-77
2022/12/31 10:50:34;;;;;;;16.02;10.00;;;;;;;;;;10433989;28;20143;-76
2022/12/31 10:55:53;;;;;;;21.35;10.43;;;;;;;;;;10460112;28;20024;-75
2022/12/31 11:01:12;;;;;;;18.17;11.52;;;;;;;;;;10463738;28;20029;-79
2022/12/31 11:06:31;;;;;;;19.83;11.15;;;;;;;;;;10453084;28;20146;-80
2022/12/31 11:11:50;;;;;;;25.90;14.20;;;;;;;;;;10476944;28;20048;-81
2022/12/31 11:16:50;;;;;;;28.98;14.75;;;;;;;;;;10464754;28;20024;-77
2022/12/31 11:22:00;;;;;;;25.45;13.02;;;;;;;;;;10483224;28;20062;-79
2022/12/31 11:27:00;;;;;;;29.13;11.95;;;;;;;;;;10465752;28;20041;-79
2022/12/31 11:32:00;;;;;;;24.27;11.85;;;;;;;;;;10485770;28;20033;-76
2022/12/31 11:37:19;;;;;;;20.50;11.43;;;;;;;;;;10481550;28;20024;-79
2022/12/31 11:42:22;;;;;;;21.80;13.02;;;;;;;;;;10472489;28;20089;-78
2022/12/31 11:47:41;;;;;;;26.38;12.80;;;;;;;;;;10471610;28;20037;-79
2022/12/31 11:53:00;;;;;;;30.75;13.77;;;;;;;;;;10462611;28;20060;-77
2022/12/31 11:58:10;;;;;;;31.17;14.50;;;;;;;;;;10462044;28;20521;-78
2022/12/31 12:03:11;;;;;;;29.15;12.73;;;;;;;;;;10478205;28;20531;-78
2022/12/31 12:08:11;;;;;;;30.13;13.50;;;;;;;;;;10461838;28;20058;-73
2022/12/31 12:13:13;;;;;;;29.97;15.23;;;;;;;;;;10462668;28;20481;-73
2022/12/31 12:18:23;;;;;;;29.70;15.50;;;;;;;;;;10461598;28;20086;-78
2022/12/31 12:23:24;;;;;;;30.25;16.10;;;;;;;;;;10477994;28;20031;-77
2022/12/31 12:28:26;;;;;;;36.80;17.52;;;;;;;;;;10461092;28;20063;-78
2022/12/31 12:33:28;;;;;;;35.10;17.50;;;;;;;;;;10461996;28;20032;-78
2022/12/31 12:38:28;;;;;;;33.28;17.63;;;;;;;;;;10454642;28;20483;-78
2022/12/31 12:43:30;;;;;;;43.78;19.80;;;;;;;;;;10460810;28;20032;-78
2022/12/31 12:48:37;;;;;;;40.55;18.92;;;;;;;;;;10474267;28;20031;-78
2022/12/31 12:53:37;;;;;;;33.88;17.75;;;;;;;;;;10464200;28;20612;-73
2022/12/31 12:58:37;;;;;;;41.05;17.55;;;;;;;;;;10478817;28;20024;-80
2022/12/31 13:03:55;;;;;;;43.50;20.50;;;;;;;;;;10452193;28;20537;-76
2022/12/31 13:09:22;;;;;;;33.33;17.00;;;;;;;;;;10460210;28;20025;-78
2022/12/31 13:14:31;;;;;;;40.03;19.10;;;;;;;;;;10458753;28;20032;-75
2022/12/31 13:19:41;;;;;;;42.13;18.35;;;;;;;;;;10474286;28;20024;-77
2022/12/31 13:25:00;;;;;;;40.25;18.23;;;;;;;;;;10481818;28;20430;-78
2022/12/31 13:30:02;;;;;;;42.08;19.42;;;;;;;;;;10467745;28;20059;-76
2022/12/31 13:35:06;;;;;;;42.10;20.17;;;;;;;;;;10456265;28;20020;-75
2022/12/31 13:40:27;;;;;;;31.77;16.55;;;;;;;;;;10471972;28;20410;-76
2022/12/31 13:45:37;;;;;;;42.17;19.25;;;;;;;;;;10433222;28;20073;-82
2022/12/31 13:50:37;;;;;;;36.53;18.17;;;;;;;;;;10477311;28;20566;-77
2022/12/31 13:55:43;;;;;;;33.60;17.35;;;;;;;;;;10464239;28;20024;-77
2022/12/31 14:00:46;;;;;;;40.67;17.90;;;;;;;;;;10487777;28;20024;-78
2022/12/31 14:05:50;;;;;;;31.40;16.73;;;;;;;;;;10489718;28;20025;-78
2022/12/31 14:10:56;;;;;;;31.60;16.33;;;;;;;;;;10470905;28;20472;-76
2022/12/31 14:16:26;;;;;;;37.03;16.63;;;;;;;;;;10488292;28;20029;-77
2022/12/31 14:21:42;;;;;;;35.13;18.20;;;;;;;;;;10400480;28;20037;-77
2022/12/31 14:26:45;;;;;;;37.00;16.83;;;;;;;;;;10449371;28;20032;-76
2022/12/31 14:31:50;;;;;;;41.60;18.40;;;;;;;;;;10446277;28;20530;-78
2022/12/31 14:37:17;;;;;;;37.25;17.70;;;;;;;;;;10445843;28;20021;-77
2022/12/31 14:42:36;;;;;;;42.20;17.73;;;;;;;;;;10442747;28;20483;-80
2022/12/31 14:47:36;;;;;;;33.50;17.17;;;;;;;;;;10468624;28;20405;-73
2022/12/31 14:52:46;;;;;;;45.97;20.10;;;;;;;;;;10487604;28;20024;-77
2022/12/31 14:57:46;;;;;;;43.50;18.85;;;;;;;;;;10468381;28;20025;-76
2022/12/31 15:02:48;;;;;;;47.10;19.73;;;;;;;;;;10479329;28;20024;-75
2022/12/31 15:07:48;;;;;;;48.30;20.58;;;;;;;;;;10468048;28;20024;-72
2022/12/31 15:13:04;;;;;;;47.92;21.98;;;;;;;;;;10485834;28;20030;-76
2022/12/31 15:18:15;;;;;;;50.58;21.42;;;;;;;;;;10443105;28;20029;-74
2022/12/31 15:23:19;;;;;;;51.35;22.63;;;;;;;;;;10467741;28;20024;-73
2022/12/31 15:28:29;;;;;;;49.67;23.40;;;;;;;;;;10485101;28;20510;-73
2022/12/31 15:33:29;;;;;;;47.35;21.77;;;;;;;;;;10484144;28;20222;-78
2022/12/31 15:38:34;;;;;;;45.42;20.33;;;;;;;;;;10443176;28;20029;-77
2022/12/31 15:43:39;;;;;;;47.80;21.02;;;;;;;;;;10467253;28;20487;-75
2022/12/31 15:48:45;;;;;;;42.97;17.98;;;;;;;;;;10454461;28;20708;-76
2022/12/31 15:53:51;;;;;;;52.60;19.42;;;;;;;;;;10465695;28;20024;-76
2022/12/31 15:58:55;;;;;;;37.95;17.42;;;;;;;;;;10484512;28;20024;-77
2022/12/31 16:04:06;;;;;;;36.67;18.25;;;;;;;;;;10466140;28;20026;-79
2022/12/31 16:09:27;;;;;;;30.90;14.48;;;;;;;;;;10466653;28;20390;-79
2022/12/31 16:14:32;;;;;;;43.65;15.65;;;;;;;;;;10450945;28;20473;-75
2022/12/31 16:19:34;;;;;;;43.03;16.23;;;;;;;;;;10454464;28;20498;-78
2022/12/31 16:24:35;;;;;;;42.90;16.48;;;;;;;;;;10452283;28;20028;-73
2022/12/31 16:29:36;;;;;;;38.30;16.63;;;;;;;;;;10451317;28;20049;-76
2022/12/31 16:34:37;;;;;;;44.90;17.83;;;;;;;;;;10464966;28;20711;-74
2022/12/31 16:41:23;;;;;;;35.47;16.73;;;;;;;;;;10518299;27;20377;-75
2022/12/31 16:46:25;;;;;;;33.75;14.25;;;;;;;;;;10459060;28;20043;-77
2022/12/31 16:51:30;;;;;;;28.15;13.57;;;;;;;;;;10473409;28;20034;-75
2022/12/31 16:56:33;;;;;;;32.33;14.20;;;;;;;;;;10475843;28;20509;-72
2022/12/31 17:01:34;;;;;;;37.65;16.08;;;;;;;;;;10475077;28;20021;-72
2022/12/31 17:06:34;;;;;;;33.47;16.17;;;;;;;;;;10474832;28;20034;-75
2022/12/31 17:11:40;;;;;;;41.13;15.82;;;;;;;;;;10474866;28;20025;-76
2022/12/31 17:16:58;;;;;;;40.45;18.88;;;;;;;;;;10474557;28;20476;-75
2022/12/31 17:21:58;;;;;;;44.00;21.40;;;;;;;;;;10476948;28;20486;-75
2022/12/31 17:27:03;;;;;;;53.78;21.27;;;;;;;;;;10483700;28;20021;-72
2022/12/31 17:32:05;;;;;;;49.40;21.27;;;;;;;;;;10471107;28;20114;-79
2022/12/31 17:37:05;;;;;;;48.05;23.33;;;;;;;;;;10506981;28;20480;-73
2022/12/31 17:42:07;;;;;;;55.75;23.58;;;;;;;;;;10472743;28;20024;-71
2022/12/31 17:47:10;;;;;;;58.70;25.25;;;;;;;;;;10473240;28;20358;-73
2022/12/31 17:52:11;;;;;;;54.30;24.77;;;;;;;;;;10432064;28;20112;-74
2022/12/31 17:57:32;;;;;;;56.22;21.25;;;;;;;;;;10420895;28;20025;-71
2022/12/31 18:02:32;;;;;;;47.92;21.42;;;;;;;;;;10420255;28;20457;-75
2022/12/31 18:07:32;;;;;;;47.00;21.48;;;;;;;;;;10443428;28;20031;-77
2022/12/31 18:12:34;;;;;;;51.47;24.73;;;;;;;;;;10404627;28;20491;-75
2022/12/31 18:17:34;;;;;;;55.03;24.40;;;;;;;;;;10441235;28;20994;-76
2022/12/31 18:22:35;;;;;;;54.37;24.27;;;;;;;;;;10444961;28;20028;-72
2022/12/31 18:27:35;;;;;;;56.10;24.85;;;;;;;;;;10447428;28;20244;-77
2022/12/31 18:32:36;;;;;;;53.90;25.13;;;;;;;;;;10449578;28;20938;-75
2022/12/31 18:37:36;;;;;;;59.08;25.15;;;;;;;;;;10440367;28;20049;-70
2022/12/31 18:42:37;;;;;;;76.63;28.73;;;;;;;;;;10442483;28;20025;-77
2022/12/31 18:47:37;;;;;;;63.33;30.37;;;;;;;;;;10447224;28;20785;-77
2022/12/31 18:52:37;;;;;;;59.25;26.45;;;;;;;;;;10439578;28;20290;-72
2022/12/31 18:57:37;;;;;;;54.93;26.63;;;;;;;;;;10444057;28;20021;-72
2022/12/31 19:02:38;;;;;;;67.07;28.73;;;;;;;;;;10436442;28;20025;-73
2022/12/31 19:07:41;;;;;;;63.27;28.07;;;;;;;;;;10451866;28;20031;-75
2022/12/31 19:12:42;;;;;;;71.15;30.48;;;;;;;;;;10439548;28;20040;-76
2022/12/31 19:17:43;;;;;;;73.88;28.98;;;;;;;;;;10442650;28;20021;-71
2022/12/31 19:22:43;;;;;;;79.10;34.85;;;;;;;;;;10440746;28;20604;-76
2022/12/31 19:27:43;;;;;;;68.40;29.10;;;;;;;;;;10442743;28;20033;-75
2022/12/31 19:32:44;;;;;;;68.33;31.37;;;;;;;;;;10440564;28;20017;-72
2022/12/31 19:37:45;;;;;;;69.10;28.63;;;;;;;;;;10441420;28;20048;-74
2022/12/31 19:42:45;;;;;;;63.60;30.33;;;;;;;;;;10439003;28;20099;-77
2022/12/31 19:47:46;;;;;;;58.07;28.07;;;;;;;;;;10440115;28;20037;-76
2022/12/31 19:52:47;;;;;;;52.67;25.15;;;;;;;;;;10437231;28;20825;-72
2022/12/31 19:57:47;;;;;;;52.92;25.02;;;;;;;;;;10436891;28;20021;-71
2022/12/31 20:02:48;;;;;;;50.60;23.75;;;;;;;;;;10436666;28;20029;-71
2022/12/31 20:07:48;;;;;;;61.45;25.70;;;;;;;;;;10428863;28;20374;-76
2022/12/31 20:12:48;;;;;;;64.37;25.80;;;;;;;;;;10437198;28;20079;-71
2022/12/31 20:17:49;;;;;;;56.40;25.42;;;;;;;;;;10437378;28;20044;-72
2022/12/31 20:22:49;;;;;;;60.67;25.73;;;;;;;;;;10408825;28;20145;-73
2022/12/31 20:27:53;;;;;;;56.83;26.13;;;;;;;;;;10434894;28;20147;-74
2022/12/31 20:32:54;;;;;;;48.83;25.30;;;;;;;;;;10436144;28;20032;-78
2022/12/31 20:37:54;;;;;;;60.45;28.67;;;;;;;;;;10435374;28;20044;-76
2022/12/31 20:42:55;;;;;;;107.45;52.95;;;;;;;;;;10430802;28;20017;-80
2022/12/31 20:47:56;;;;;;;99.57;49.00;;;;;;;;;;10437049;28;20057;-79
2022/12/31 20:52:56;;;;;;;82.68;40.67;;;;;;;;;;10434522;28;20035;-78
2022/12/31 20:57:57;;;;;;;57.17;25.83;;;;;;;;;;10432755;28;20033;-75
2022/12/31 21:02:58;;;;;;;53.60;26.48;;;;;;;;;;10433265;28;20024;-77
2022/12/31 21:07:58;;;;;;;46.75;21.38;;;;;;;;;;10437434;28;20028;-78
2022/12/31 21:12:59;;;;;;;54.65;25.25;;;;;;;;;;10429870;28;20044;-71
2022/12/31 21:17:59;;;;;;;44.17;23.10;;;;;;;;;;10434766;28;20028;-72
2022/12/31 21:22:59;;;;;;;36.45;15.60;;;;;;;;;;10433521;28;20048;-71
2022/12/31 21:27:59;;;;;;;25.20;15.00;;;;;;;;;;10443023;28;20036;-71
2022/12/31 21:33:00;;;;;;;33.83;15.35;;;;;;;;;;10443094;28;20036;-76
2022/12/31 21:38:01;;;;;;;19.58;11.48;;;;;;;;;;10443893;28;20120;-79
2022/12/31 21:43:01;;;;;;;20.33;10.98;;;;;;;;;;10436514;28;20130;-78
2022/12/31 21:48:20;;;;;;;21.27;8.32;;;;;;;;;;10444262;28;20398;-71
2022/12/31 21:53:22;;;;;;;19.67;9.57;;;;;;;;;;10438362;28;20629;-71
2022/12/31 21:58:22;;;;;;;19.90;9.85;;;;;;;;;;10442791;28;20028;-73
2022/12/31 22:03:30;;;;;;;36.28;16.70;;;;;;;;;;10446577;28;20021;-73
2022/12/31 22:08:30;;;;;;;47.70;22.35;;;;;;;;;;10451060;28;20020;-77
2022/12/31 22:13:31;;;;;;;33.17;15.97;;;;;;;;;;10443568;28;20473;-70
2022/12/31 22:18:33;;;;;;;51.75;24.55;;;;;;;;;;10441807;28;20590;-75
2022/12/31 22:23:34;;;;;;;67.70;30.85;;;;;;;;;;10438225;28;20017;-76
2022/12/31 22:28:37;;;;;;;44.95;19.60;;;;;;;;;;10433549;28;20036;-76
2022/12/31 22:33:37;;;;;;;67.88;29.90;;;;;;;;;;10441901;28;20418;-74
2022/12/31 22:38:38;;;;;;;81.78;41.03;;;;;;;;;;10440005;28;20044;-76
2022/12/31 22:43:39;;;;;;;93.07;45.30;;;;;;;;;;10438408;28;20111;-70
2022/12/31 22:48:40;;;;;;;101.47;49.05;;;;;;;;;;10435027;28;20410;-71
2022/12/31 22:53:42;;;;;;;111.60;54.95;;;;;;;;;;10439627;28;20037;-70
2022/12/31 22:58:42;;;;;;;114.18;54.22;;;;;;;;;;10441545;28;20021;-75
2022/12/31 23:03:44;;;;;;;125.47;57.88;;;;;;;;;;10437559;28;20013;-71
2022/12/31 23:10:58;;;;;;;102.43;48.60;;;;;;;;;;10440230;28;20138;-75
2022/12/31 23:24:43;;;;;;;122.57;57.08;;;;;;;;;;10440925;28;20025;-71
2022/12/31 23:29:43;;;;;;;156.73;68.95;;;;;;;;;;10432299;28;20467;-77
2022/12/31 23:34:44;;;;;;;200.57;81.15;;;;;;;;;;10439511;28;20017;-77
2022/12/31 23:39:45;;;;;;;230.48;98.25;;;;;;;;;;10439888;28;20128;-76
2022/12/31 23:44:45;;;;;;;218.15;98.38;;;;;;;;;;10441081;28;20024;-77
2022/12/31 23:49:45;;;;;;;234.27;101.78;;;;;;;;;;10438727;28;20036;-72
2022/12/31 23:54:45;;;;;;;285.35;122.05;;;;;;;;;;10424569;28;20635;-76
2022/12/31 23:59:46;;;;;;;177.18;83.63;;;;;;;;;;10440733;28;20388;-69
